sensor_id;sensor_type;location;lat;lon;timestamp;P1;durP1;ratioP1;P2;durP2;ratioP2
73869;SDS011;64924;42.140;24.762;2023-02-07T00:00:44;14.52;;;8.80;;
73869;SDS011;64924;42.140;24.762;2023-02-07T00:03:10;15.55;;;9.10;;
73869;SDS011;64924;42.140;24.762;2023-02-07T00:05:36;21.05;;;9.57;;
73869;SDS011;64924;42.140;24.762;2023-02-07T00:08:02;14.80;;;8.88;;
73869;SDS011;64924;42.140;24.762;2023-02-07T00:10:29;15.13;;;8.38;;
73869;SDS011;64924;42.140;24.762;2023-02-07T00:12:55;21.88;;;8.90;;
73869;SDS011;64924;42.140;24.762;2023-02-07T00:15:20;16.63;;;9.35;;
73869;SDS011;64924;42.140;24.762;2023-02-07T00:17:46;15.63;;;9.23;;
73869;SDS011;64924;42.140;24.762;2023-02-07T00:20:11;15.30;;;8.48;;
73869;SDS011;64924;42.140;24.762;2023-02-07T00:22:37;16.27;;;9.15;;
73869;SDS011;64924;42.140;24.762;2023-02-07T00:25:02;15.43;;;9.48;;
73869;SDS011;64924;42.140;24.762;2023-02-07T00:27:28;16.63;;;9.40;;
73869;SDS011;64924;42.140;24.762;2023-02-07T00:29:54;18.85;;;8.65;;
73869;SDS011;64924;42.140;24.762;2023-02-07T00:32:19;17.83;;;9.65;;
73869;SDS011;64924;42.140;24.762;2023-02-07T00:34:45;19.50;;;10.02;;
73869;SDS011;64924;42.140;24.762;2023-02-07T00:37:11;16.77;;;9.77;;
73869;SDS011;64924;42.140;24.762;2023-02-07T00:39:37;19.70;;;10.13;;
73869;SDS011;64924;42.140;24.762;2023-02-07T00:42:03;20.00;;;9.57;;
73869;SDS011;64924;42.140;24.762;2023-02-07T00:44:29;16.25;;;8.80;;
73869;SDS011;64924;42.140;24.762;2023-02-07T00:46:55;19.65;;;9.93;;
73869;SDS011;64924;42.140;24.762;2023-02-07T00:49:21;21.60;;;9.90;;
73869;SDS011;64924;42.140;24.762;2023-02-07T00:51:46;30.55;;;10.73;;
73869;SDS011;64924;42.140;24.762;2023-02-07T00:54:12;16.00;;;9.27;;
73869;SDS011;64924;42.140;24.762;2023-02-07T00:56:38;18.40;;;9.95;;
73869;SDS011;64924;42.140;24.762;2023-02-07T00:59:03;18.63;;;9.43;;
73869;SDS011;64924;42.140;24.762;2023-02-07T01:01:29;17.48;;;9.55;;
73869;SDS011;64924;42.140;24.762;2023-02-07T01:03:54;20.38;;;10.50;;
73869;SDS011;64924;42.140;24.762;2023-02-07T01:06:20;16.90;;;8.88;;
73869;SDS011;64924;42.140;24.762;2023-02-07T01:08:46;17.67;;;8.90;;
73869;SDS011;64924;42.140;24.762;2023-02-07T01:11:13;19.38;;;9.20;;
73869;SDS011;64924;42.140;24.762;2023-02-07T01:13:40;16.95;;;9.13;;
73869;SDS011;64924;42.140;24.762;2023-02-07T01:16:24;14.65;;;8.38;;
73869;SDS011;64924;42.140;24.762;2023-02-07T01:18:52;15.80;;;8.23;;
73869;SDS011;64924;42.140;24.762;2023-02-07T01:21:19;20.17;;;9.75;;
73869;SDS011;64924;42.140;24.762;2023-02-07T01:23:46;49.95;;;13.00;;
73869;SDS011;64924;42.140;24.762;2023-02-07T01:26:11;30.08;;;10.98;;
73869;SDS011;64924;42.140;24.762;2023-02-07T01:28:37;22.95;;;9.88;;
73869;SDS011;64924;42.140;24.762;2023-02-07T01:31:07;19.45;;;9.02;;
73869;SDS011;64924;42.140;24.762;2023-02-07T01:33:34;15.20;;;8.02;;
73869;SDS011;64924;42.140;24.762;2023-02-07T01:36:07;14.43;;;8.07;;
73869;SDS011;64924;42.140;24.762;2023-02-07T01:38:37;12.27;;;7.72;;
73869;SDS011;64924;42.140;24.762;2023-02-07T01:41:03;14.57;;;8.00;;
73869;SDS011;64924;42.140;24.762;2023-02-07T01:43:29;14.10;;;7.43;;
73869;SDS011;64924;42.140;24.762;2023-02-07T01:45:55;16.02;;;8.15;;
73869;SDS011;64924;42.140;24.762;2023-02-07T01:48:32;13.65;;;7.88;;
73869;SDS011;64924;42.140;24.762;2023-02-07T01:51:02;15.65;;;7.35;;
73869;SDS011;64924;42.140;24.762;2023-02-07T01:53:30;15.73;;;7.72;;
73869;SDS011;64924;42.140;24.762;2023-02-07T01:55:59;14.57;;;7.45;;
73869;SDS011;64924;42.140;24.762;2023-02-07T01:58:29;13.65;;;7.30;;
73869;SDS011;64924;42.140;24.762;2023-02-07T02:00:55;13.10;;;6.97;;
73869;SDS011;64924;42.140;24.762;2023-02-07T02:03:22;12.75;;;6.80;;
73869;SDS011;64924;42.140;24.762;2023-02-07T02:05:47;15.90;;;7.07;;
73869;SDS011;64924;42.140;24.762;2023-02-07T02:08:16;14.77;;;6.85;;
73869;SDS011;64924;42.140;24.762;2023-02-07T02:10:46;13.80;;;6.97;;
73869;SDS011;64924;42.140;24.762;2023-02-07T02:16:15;10.40;;;6.03;;
73869;SDS011;64924;42.140;24.762;2023-02-07T02:21:42;16.02;;;7.05;;
73869;SDS011;64924;42.140;24.762;2023-02-07T02:37:53;12.32;;;6.88;;
73869;SDS011;64924;42.140;24.762;2023-02-07T02:43:03;12.35;;;6.80;;
73869;SDS011;64924;42.140;24.762;2023-02-07T02:45:57;12.13;;;6.45;;
73869;SDS011;64924;42.140;24.762;2023-02-07T02:48:26;12.68;;;6.55;;
73869;SDS011;64924;42.140;24.762;2023-02-07T02:50:53;16.48;;;6.45;;
73869;SDS011;64924;42.140;24.762;2023-02-07T02:53:19;13.65;;;7.15;;
73869;SDS011;64924;42.140;24.762;2023-02-07T03:01:13;13.05;;;7.40;;
73869;SDS011;64924;42.140;24.762;2023-02-07T03:03:53;13.25;;;7.18;;
73869;SDS011;64924;42.140;24.762;2023-02-07T03:15:15;12.15;;;6.68;;
73869;SDS011;64924;42.140;24.762;2023-02-07T03:17:49;13.60;;;7.05;;
73869;SDS011;64924;42.140;24.762;2023-02-07T03:22:55;14.77;;;8.18;;
73869;SDS011;64924;42.140;24.762;2023-02-07T03:25:23;15.15;;;8.10;;
73869;SDS011;64924;42.140;24.762;2023-02-07T03:27:50;14.38;;;7.63;;
73869;SDS011;64924;42.140;24.762;2023-02-07T03:30:19;17.58;;;9.05;;
73869;SDS011;64924;42.140;24.762;2023-02-07T03:32:50;13.98;;;7.80;;
73869;SDS011;64924;42.140;24.762;2023-02-07T03:35:24;16.00;;;8.52;;
73869;SDS011;64924;42.140;24.762;2023-02-07T03:37:57;17.98;;;8.05;;
73869;SDS011;64924;42.140;24.762;2023-02-07T03:40:29;15.82;;;7.50;;
73869;SDS011;64924;42.140;24.762;2023-02-07T03:43:04;16.80;;;9.57;;
73869;SDS011;64924;42.140;24.762;2023-02-07T03:45:34;14.77;;;9.43;;
73869;SDS011;64924;42.140;24.762;2023-02-07T03:48:00;18.45;;;8.90;;
73869;SDS011;64924;42.140;24.762;2023-02-07T03:50:26;18.52;;;8.77;;
73869;SDS011;64924;42.140;24.762;2023-02-07T03:52:51;19.02;;;9.57;;
73869;SDS011;64924;42.140;24.762;2023-02-07T03:55:17;17.45;;;8.80;;
73869;SDS011;64924;42.140;24.762;2023-02-07T03:57:43;19.23;;;9.50;;
73869;SDS011;64924;42.140;24.762;2023-02-07T04:00:08;19.48;;;8.70;;
73869;SDS011;64924;42.140;24.762;2023-02-07T04:02:34;15.32;;;9.15;;
73869;SDS011;64924;42.140;24.762;2023-02-07T04:05:00;16.60;;;8.77;;
73869;SDS011;64924;42.140;24.762;2023-02-07T04:07:25;18.35;;;9.13;;
73869;SDS011;64924;42.140;24.762;2023-02-07T04:09:51;17.45;;;9.02;;
73869;SDS011;64924;42.140;24.762;2023-02-07T04:12:16;21.38;;;8.35;;
73869;SDS011;64924;42.140;24.762;2023-02-07T04:14:42;18.20;;;9.55;;
73869;SDS011;64924;42.140;24.762;2023-02-07T04:17:07;19.45;;;8.80;;
73869;SDS011;64924;42.140;24.762;2023-02-07T04:19:33;18.90;;;9.25;;
73869;SDS011;64924;42.140;24.762;2023-02-07T04:21:59;19.27;;;9.35;;
73869;SDS011;64924;42.140;24.762;2023-02-07T04:24:24;22.35;;;9.15;;
73869;SDS011;64924;42.140;24.762;2023-02-07T04:26:50;24.90;;;9.45;;
73869;SDS011;64924;42.140;24.762;2023-02-07T04:29:15;21.40;;;9.05;;
73869;SDS011;64924;42.140;24.762;2023-02-07T04:31:41;15.63;;;8.63;;
73869;SDS011;64924;42.140;24.762;2023-02-07T04:34:07;20.95;;;8.23;;
73869;SDS011;64924;42.140;24.762;2023-02-07T04:36:34;20.83;;;9.32;;
73869;SDS011;64924;42.140;24.762;2023-02-07T04:39:00;15.27;;;8.55;;
73869;SDS011;64924;42.140;24.762;2023-02-07T04:41:26;19.60;;;9.38;;
73869;SDS011;64924;42.140;24.762;2023-02-07T04:43:52;18.27;;;9.48;;
73869;SDS011;64924;42.140;24.762;2023-02-07T04:46:17;18.58;;;9.90;;
73869;SDS011;64924;42.140;24.762;2023-02-07T04:48:43;20.00;;;9.20;;
73869;SDS011;64924;42.140;24.762;2023-02-07T04:51:08;18.38;;;9.02;;
73869;SDS011;64924;42.140;24.762;2023-02-07T04:53:34;20.67;;;10.25;;
73869;SDS011;64924;42.140;24.762;2023-02-07T04:55:59;19.30;;;10.25;;
73869;SDS011;64924;42.140;24.762;2023-02-07T04:58:25;19.13;;;9.20;;
73869;SDS011;64924;42.140;24.762;2023-02-07T05:00:51;28.90;;;10.35;;
73869;SDS011;64924;42.140;24.762;2023-02-07T05:03:17;25.35;;;10.30;;
73869;SDS011;64924;42.140;24.762;2023-02-07T05:05:43;25.90;;;9.82;;
73869;SDS011;64924;42.140;24.762;2023-02-07T05:08:10;25.10;;;9.98;;
73869;SDS011;64924;42.140;24.762;2023-02-07T05:10:37;23.73;;;10.60;;
73869;SDS011;64924;42.140;24.762;2023-02-07T05:13:03;25.52;;;12.32;;
73869;SDS011;64924;42.140;24.762;2023-02-07T05:15:29;26.20;;;11.48;;
73869;SDS011;64924;42.140;24.762;2023-02-07T05:17:55;29.02;;;13.13;;
73869;SDS011;64924;42.140;24.762;2023-02-07T05:20:21;27.13;;;12.73;;
73869;SDS011;64924;42.140;24.762;2023-02-07T05:22:47;37.80;;;13.07;;
73869;SDS011;64924;42.140;24.762;2023-02-07T05:25:13;25.95;;;11.80;;
73869;SDS011;64924;42.140;24.762;2023-02-07T05:27:39;29.65;;;11.95;;
73869;SDS011;64924;42.140;24.762;2023-02-07T05:30:04;30.73;;;13.52;;
73869;SDS011;64924;42.140;24.762;2023-02-07T05:32:30;25.42;;;11.65;;
73869;SDS011;64924;42.140;24.762;2023-02-07T05:35:15;42.00;;;14.25;;
73869;SDS011;64924;42.140;24.762;2023-02-07T05:37:40;33.35;;;13.23;;
73869;SDS011;64924;42.140;24.762;2023-02-07T05:40:06;21.65;;;11.57;;
73869;SDS011;64924;42.140;24.762;2023-02-07T05:42:32;44.45;;;16.75;;
73869;SDS011;64924;42.140;24.762;2023-02-07T05:44:58;57.90;;;21.25;;
73869;SDS011;64924;42.140;24.762;2023-02-07T05:47:23;68.70;;;24.75;;
73869;SDS011;64924;42.140;24.762;2023-02-07T05:49:48;78.20;;;27.95;;
73869;SDS011;64924;42.140;24.762;2023-02-07T05:52:14;54.40;;;20.60;;
73869;SDS011;64924;42.140;24.762;2023-02-07T05:54:40;40.20;;;17.75;;
73869;SDS011;64924;42.140;24.762;2023-02-07T05:57:05;40.17;;;14.85;;
73869;SDS011;64924;42.140;24.762;2023-02-07T05:59:31;36.53;;;13.48;;
73869;SDS011;64924;42.140;24.762;2023-02-07T06:01:56;41.72;;;14.07;;
73869;SDS011;64924;42.140;24.762;2023-02-07T06:04:22;56.33;;;18.25;;
73869;SDS011;64924;42.140;24.762;2023-02-07T06:06:47;66.60;;;24.02;;
73869;SDS011;64924;42.140;24.762;2023-02-07T06:09:13;39.95;;;18.73;;
73869;SDS011;64924;42.140;24.762;2023-02-07T06:11:38;40.85;;;20.13;;
73869;SDS011;64924;42.140;24.762;2023-02-07T06:14:04;55.17;;;24.52;;
73869;SDS011;64924;42.140;24.762;2023-02-07T06:16:29;56.13;;;23.25;;
73869;SDS011;64924;42.140;24.762;2023-02-07T06:18:55;45.53;;;18.67;;
73869;SDS011;64924;42.140;24.762;2023-02-07T06:21:20;33.72;;;13.25;;
73869;SDS011;64924;42.140;24.762;2023-02-07T06:23:46;29.92;;;12.98;;
73869;SDS011;64924;42.140;24.762;2023-02-07T06:26:13;33.22;;;13.20;;
73869;SDS011;64924;42.140;24.762;2023-02-07T06:28:38;29.08;;;12.07;;
73869;SDS011;64924;42.140;24.762;2023-02-07T06:31:04;26.20;;;12.13;;
73869;SDS011;64924;42.140;24.762;2023-02-07T06:33:30;29.90;;;12.00;;
73869;SDS011;64924;42.140;24.762;2023-02-07T06:35:55;26.63;;;13.25;;
73869;SDS011;64924;42.140;24.762;2023-02-07T06:38:21;32.65;;;12.98;;
73869;SDS011;64924;42.140;24.762;2023-02-07T06:40:47;32.78;;;12.52;;
73869;SDS011;64924;42.140;24.762;2023-02-07T06:43:12;27.48;;;12.20;;
73869;SDS011;64924;42.140;24.762;2023-02-07T06:45:38;25.25;;;12.73;;
73869;SDS011;64924;42.140;24.762;2023-02-07T06:48:04;33.67;;;15.75;;
73869;SDS011;64924;42.140;24.762;2023-02-07T06:50:29;35.95;;;14.43;;
73869;SDS011;64924;42.140;24.762;2023-02-07T06:52:55;21.63;;;11.55;;
73869;SDS011;64924;42.140;24.762;2023-02-07T06:55:26;20.02;;;10.27;;
73869;SDS011;64924;42.140;24.762;2023-02-07T06:57:53;16.50;;;9.40;;
73869;SDS011;64924;42.140;24.762;2023-02-07T07:00:18;16.55;;;9.15;;
73869;SDS011;64924;42.140;24.762;2023-02-07T07:02:46;15.57;;;10.10;;
73869;SDS011;64924;42.140;24.762;2023-02-07T07:05:11;22.55;;;9.68;;
73869;SDS011;64924;42.140;24.762;2023-02-07T07:07:37;21.85;;;11.27;;
73869;SDS011;64924;42.140;24.762;2023-02-07T07:10:03;17.80;;;8.77;;
73869;SDS011;64924;42.140;24.762;2023-02-07T07:12:29;18.02;;;9.35;;
73869;SDS011;64924;42.140;24.762;2023-02-07T07:14:55;16.15;;;10.05;;
73869;SDS011;64924;42.140;24.762;2023-02-07T07:17:20;22.42;;;10.98;;
73869;SDS011;64924;42.140;24.762;2023-02-07T07:19:46;14.40;;;7.70;;
73869;SDS011;64924;42.140;24.762;2023-02-07T07:22:11;14.35;;;7.57;;
73869;SDS011;64924;42.140;24.762;2023-02-07T07:24:36;14.20;;;7.63;;
73869;SDS011;64924;42.140;24.762;2023-02-07T07:27:02;13.73;;;7.63;;
73869;SDS011;64924;42.140;24.762;2023-02-07T07:29:27;19.13;;;8.25;;
73869;SDS011;64924;42.140;24.762;2023-02-07T07:31:53;13.80;;;7.30;;
73869;SDS011;64924;42.140;24.762;2023-02-07T07:34:18;11.88;;;7.13;;
73869;SDS011;64924;42.140;24.762;2023-02-07T07:36:44;10.48;;;6.75;;
73869;SDS011;64924;42.140;24.762;2023-02-07T07:39:09;11.00;;;7.25;;
73869;SDS011;64924;42.140;24.762;2023-02-07T07:41:35;11.30;;;6.45;;
73869;SDS011;64924;42.140;24.762;2023-02-07T07:44:01;12.25;;;7.03;;
73869;SDS011;64924;42.140;24.762;2023-02-07T07:46:27;13.77;;;7.95;;
73869;SDS011;64924;42.140;24.762;2023-02-07T07:48:52;12.93;;;7.78;;
73869;SDS011;64924;42.140;24.762;2023-02-07T07:51:18;10.40;;;7.05;;
73869;SDS011;64924;42.140;24.762;2023-02-07T07:53:43;14.70;;;7.50;;
73869;SDS011;64924;42.140;24.762;2023-02-07T07:56:09;16.48;;;8.70;;
73869;SDS011;64924;42.140;24.762;2023-02-07T07:58:34;12.35;;;7.72;;
73869;SDS011;64924;42.140;24.762;2023-02-07T08:01:00;12.98;;;7.55;;
73869;SDS011;64924;42.140;24.762;2023-02-07T08:03:25;15.48;;;8.38;;
73869;SDS011;64924;42.140;24.762;2023-02-07T08:05:51;16.80;;;7.28;;
73869;SDS011;64924;42.140;24.762;2023-02-07T08:08:16;14.82;;;6.63;;
73869;SDS011;64924;42.140;24.762;2023-02-07T08:10:43;10.65;;;6.75;;
73869;SDS011;64924;42.140;24.762;2023-02-07T08:13:09;7.88;;;5.40;;
73869;SDS011;64924;42.140;24.762;2023-02-07T08:15:35;9.20;;;6.20;;
73869;SDS011;64924;42.140;24.762;2023-02-07T08:18:01;11.48;;;7.15;;
73869;SDS011;64924;42.140;24.762;2023-02-07T08:20:26;13.88;;;7.18;;
73869;SDS011;64924;42.140;24.762;2023-02-07T08:22:52;14.38;;;7.20;;
73869;SDS011;64924;42.140;24.762;2023-02-07T08:25:17;11.50;;;6.40;;
73869;SDS011;64924;42.140;24.762;2023-02-07T08:27:43;13.05;;;6.63;;
73869;SDS011;64924;42.140;24.762;2023-02-07T08:30:10;13.45;;;6.68;;
73869;SDS011;64924;42.140;24.762;2023-02-07T08:32:38;10.80;;;6.72;;
73869;SDS011;64924;42.140;24.762;2023-02-07T08:35:05;10.20;;;6.60;;
73869;SDS011;64924;42.140;24.762;2023-02-07T08:37:31;8.73;;;6.15;;
73869;SDS011;64924;42.140;24.762;2023-02-07T08:39:56;12.40;;;6.70;;
73869;SDS011;64924;42.140;24.762;2023-02-07T08:42:22;14.02;;;6.70;;
73869;SDS011;64924;42.140;24.762;2023-02-07T08:44:48;10.55;;;6.88;;
73869;SDS011;64924;42.140;24.762;2023-02-07T08:47:15;19.17;;;8.98;;
73869;SDS011;64924;42.140;24.762;2023-02-07T08:49:46;11.88;;;6.95;;
73869;SDS011;64924;42.140;24.762;2023-02-07T08:52:12;16.98;;;8.52;;
73869;SDS011;64924;42.140;24.762;2023-02-07T08:54:37;15.57;;;8.57;;
73869;SDS011;64924;42.140;24.762;2023-02-07T08:57:03;12.05;;;7.45;;
73869;SDS011;64924;42.140;24.762;2023-02-07T08:59:29;11.93;;;7.07;;
73869;SDS011;64924;42.140;24.762;2023-02-07T09:01:55;15.02;;;9.27;;
73869;SDS011;64924;42.140;24.762;2023-02-07T09:04:20;13.68;;;8.07;;
73869;SDS011;64924;42.140;24.762;2023-02-07T09:06:46;11.68;;;7.80;;
73869;SDS011;64924;42.140;24.762;2023-02-07T09:09:12;11.73;;;6.97;;
73869;SDS011;64924;42.140;24.762;2023-02-07T09:11:37;10.77;;;6.78;;
73869;SDS011;64924;42.140;24.762;2023-02-07T09:14:03;14.43;;;8.07;;
73869;SDS011;64924;42.140;24.762;2023-02-07T09:16:29;9.90;;;6.82;;
73869;SDS011;64924;42.140;24.762;2023-02-07T09:18:54;9.27;;;6.68;;
73869;SDS011;64924;42.140;24.762;2023-02-07T09:21:20;7.97;;;5.47;;
73869;SDS011;64924;42.140;24.762;2023-02-07T09:23:46;14.55;;;9.85;;
73869;SDS011;64924;42.140;24.762;2023-02-07T09:26:14;8.30;;;5.55;;
73869;SDS011;64924;42.140;24.762;2023-02-07T09:28:42;10.02;;;6.68;;
73869;SDS011;64924;42.140;24.762;2023-02-07T09:31:08;15.38;;;7.85;;
73869;SDS011;64924;42.140;24.762;2023-02-07T09:33:36;16.80;;;8.18;;
73869;SDS011;64924;42.140;24.762;2023-02-07T09:36:02;10.75;;;6.50;;
73869;SDS011;64924;42.140;24.762;2023-02-07T09:38:27;10.35;;;6.80;;
73869;SDS011;64924;42.140;24.762;2023-02-07T09:40:53;11.65;;;6.10;;
73869;SDS011;64924;42.140;24.762;2023-02-07T09:43:52;13.65;;;8.32;;
73869;SDS011;64924;42.140;24.762;2023-02-07T09:46:38;19.80;;;7.38;;
73869;SDS011;64924;42.140;24.762;2023-02-07T09:52:11;13.98;;;7.65;;
73869;SDS011;64924;42.140;24.762;2023-02-07T09:54:43;13.75;;;7.68;;
73869;SDS011;64924;42.140;24.762;2023-02-07T09:57:18;13.73;;;7.00;;
73869;SDS011;64924;42.140;24.762;2023-02-07T10:00:06;10.27;;;5.85;;
73869;SDS011;64924;42.140;24.762;2023-02-07T10:02:38;9.05;;;5.72;;
73869;SDS011;64924;42.140;24.762;2023-02-07T10:05:14;10.45;;;5.32;;
73869;SDS011;64924;42.140;24.762;2023-02-07T10:07:46;10.07;;;5.78;;
73869;SDS011;64924;42.140;24.762;2023-02-07T10:10:14;12.07;;;6.63;;
73869;SDS011;64924;42.140;24.762;2023-02-07T10:12:53;9.55;;;5.80;;
73869;SDS011;64924;42.140;24.762;2023-02-07T10:31:29;9.20;;;5.70;;
73869;SDS011;64924;42.140;24.762;2023-02-07T10:34:01;12.02;;;7.30;;
73869;SDS011;64924;42.140;24.762;2023-02-07T10:36:35;11.68;;;6.80;;
73869;SDS011;64924;42.140;24.762;2023-02-07T10:39:06;14.27;;;8.88;;
73869;SDS011;64924;42.140;24.762;2023-02-07T10:41:50;11.82;;;7.13;;
73869;SDS011;64924;42.140;24.762;2023-02-07T10:44:19;7.68;;;5.88;;
73869;SDS011;64924;42.140;24.762;2023-02-07T10:47:08;10.63;;;6.90;;
73869;SDS011;64924;42.140;24.762;2023-02-07T10:49:33;9.38;;;6.35;;
73869;SDS011;64924;42.140;24.762;2023-02-07T10:52:05;12.35;;;6.90;;
73869;SDS011;64924;42.140;24.762;2023-02-07T10:54:56;10.65;;;6.45;;
73869;SDS011;64924;42.140;24.762;2023-02-07T10:59:56;6.10;;;4.03;;
73869;SDS011;64924;42.140;24.762;2023-02-07T11:02:48;9.10;;;3.88;;
73869;SDS011;64924;42.140;24.762;2023-02-07T11:07:44;7.15;;;4.60;;
73869;SDS011;64924;42.140;24.762;2023-02-07T11:10:41;7.35;;;4.13;;
73869;SDS011;64924;42.140;24.762;2023-02-07T11:13:12;6.32;;;3.33;;
73869;SDS011;64924;42.140;24.762;2023-02-07T11:21:41;6.38;;;3.85;;
73869;SDS011;64924;42.140;24.762;2023-02-07T11:29:25;5.82;;;4.22;;
73869;SDS011;64924;42.140;24.762;2023-02-07T11:31:54;6.07;;;4.35;;
73869;SDS011;64924;42.140;24.762;2023-02-07T11:34:39;6.63;;;3.75;;
73869;SDS011;64924;42.140;24.762;2023-02-07T11:39:42;7.90;;;3.40;;
73869;SDS011;64924;42.140;24.762;2023-02-07T11:42:13;5.80;;;3.47;;
73869;SDS011;64924;42.140;24.762;2023-02-07T11:44:43;8.68;;;5.18;;
73869;SDS011;64924;42.140;24.762;2023-02-07T11:47:16;5.85;;;4.10;;
73869;SDS011;64924;42.140;24.762;2023-02-07T11:49:56;8.93;;;4.00;;
73869;SDS011;64924;42.140;24.762;2023-02-07T11:52:25;6.93;;;3.45;;
73869;SDS011;64924;42.140;24.762;2023-02-07T11:54:52;6.70;;;3.85;;
73869;SDS011;64924;42.140;24.762;2023-02-07T11:57:21;5.53;;;3.58;;
73869;SDS011;64924;42.140;24.762;2023-02-07T12:02:31;8.20;;;4.30;;
73869;SDS011;64924;42.140;24.762;2023-02-07T12:05:19;6.28;;;4.07;;
73869;SDS011;64924;42.140;24.762;2023-02-07T12:07:49;9.10;;;5.45;;
73869;SDS011;64924;42.140;24.762;2023-02-07T12:10:22;7.18;;;4.57;;
73869;SDS011;64924;42.140;24.762;2023-02-07T12:15:36;9.43;;;4.82;;
73869;SDS011;64924;42.140;24.762;2023-02-07T12:26:02;7.63;;;4.18;;
73869;SDS011;64924;42.140;24.762;2023-02-07T12:28:42;6.57;;;4.35;;
73869;SDS011;64924;42.140;24.762;2023-02-07T12:31:23;12.90;;;4.78;;
73869;SDS011;64924;42.140;24.762;2023-02-07T12:33:57;17.73;;;8.75;;
73869;SDS011;64924;42.140;24.762;2023-02-07T12:36:32;9.65;;;5.50;;
73869;SDS011;64924;42.140;24.762;2023-02-07T12:39:02;8.18;;;5.05;;
73869;SDS011;64924;42.140;24.762;2023-02-07T12:44:37;8.10;;;5.03;;
73869;SDS011;64924;42.140;24.762;2023-02-07T12:47:13;7.65;;;4.80;;
73869;SDS011;64924;42.140;24.762;2023-02-07T12:52:51;6.85;;;4.20;;
73869;SDS011;64924;42.140;24.762;2023-02-07T13:03:18;6.65;;;3.38;;
73869;SDS011;64924;42.140;24.762;2023-02-07T13:08:40;8.05;;;4.93;;
73869;SDS011;64924;42.140;24.762;2023-02-07T13:16:57;8.13;;;4.65;;
73869;SDS011;64924;42.140;24.762;2023-02-07T13:22:32;7.45;;;4.20;;
73869;SDS011;64924;42.140;24.762;2023-02-07T13:25:11;7.22;;;4.20;;
73869;SDS011;64924;42.140;24.762;2023-02-07T13:27:43;9.30;;;4.65;;
73869;SDS011;64924;42.140;24.762;2023-02-07T13:30:13;7.63;;;4.95;;
73869;SDS011;64924;42.140;24.762;2023-02-07T13:32:41;8.02;;;5.22;;
73869;SDS011;64924;42.140;24.762;2023-02-07T13:35:18;8.50;;;4.68;;
73869;SDS011;64924;42.140;24.762;2023-02-07T13:38:06;14.00;;;5.60;;
73869;SDS011;64924;42.140;24.762;2023-02-07T13:49:53;10.35;;;5.38;;
73869;SDS011;64924;42.140;24.762;2023-02-07T13:52:29;8.70;;;4.90;;
73869;SDS011;64924;42.140;24.762;2023-02-07T13:57:46;10.98;;;6.43;;
73869;SDS011;64924;42.140;24.762;2023-02-07T14:00:31;15.68;;;7.45;;
73869;SDS011;64924;42.140;24.762;2023-02-07T14:03:18;20.85;;;11.20;;
73869;SDS011;64924;42.140;24.762;2023-02-07T14:05:51;12.40;;;5.97;;
73869;SDS011;64924;42.140;24.762;2023-02-07T14:10:46;9.43;;;5.93;;
73869;SDS011;64924;42.140;24.762;2023-02-07T14:13:27;12.45;;;6.68;;
73869;SDS011;64924;42.140;24.762;2023-02-07T14:18:36;11.82;;;7.00;;
73869;SDS011;64924;42.140;24.762;2023-02-07T14:31:54;7.75;;;5.05;;
73869;SDS011;64924;42.140;24.762;2023-02-07T14:34:20;11.25;;;6.97;;
73869;SDS011;64924;42.140;24.762;2023-02-07T14:36:48;9.77;;;5.75;;
73869;SDS011;64924;42.140;24.762;2023-02-07T14:41:43;9.50;;;5.57;;
73869;SDS011;64924;42.140;24.762;2023-02-07T14:44:23;7.53;;;4.75;;
73869;SDS011;64924;42.140;24.762;2023-02-07T14:46:53;9.95;;;5.45;;
73869;SDS011;64924;42.140;24.762;2023-02-07T14:52:01;7.90;;;4.95;;
73869;SDS011;64924;42.140;24.762;2023-02-07T15:05:47;8.60;;;5.00;;
73869;SDS011;64924;42.140;24.762;2023-02-07T15:10:39;11.18;;;6.57;;
73869;SDS011;64924;42.140;24.762;2023-02-07T15:13:20;12.43;;;7.00;;
73869;SDS011;64924;42.140;24.762;2023-02-07T15:15:52;11.40;;;7.10;;
73869;SDS011;64924;42.140;24.762;2023-02-07T15:18:19;11.18;;;7.35;;
73869;SDS011;64924;42.140;24.762;2023-02-07T15:20:47;10.00;;;6.00;;
73869;SDS011;64924;42.140;24.762;2023-02-07T15:23:15;12.13;;;6.30;;
73869;SDS011;64924;42.140;24.762;2023-02-07T15:25:42;11.45;;;5.82;;
73869;SDS011;64924;42.140;24.762;2023-02-07T15:33:40;9.60;;;5.50;;
73869;SDS011;64924;42.140;24.762;2023-02-07T15:39:20;15.70;;;6.03;;
73869;SDS011;64924;42.140;24.762;2023-02-07T15:41:48;14.60;;;7.00;;
73869;SDS011;64924;42.140;24.762;2023-02-07T15:44:25;13.00;;;7.22;;
73869;SDS011;64924;42.140;24.762;2023-02-07T15:52:12;9.60;;;6.40;;
73869;SDS011;64924;42.140;24.762;2023-02-07T15:54:45;23.55;;;11.95;;
73869;SDS011;64924;42.140;24.762;2023-02-07T15:57:20;14.70;;;7.15;;
73869;SDS011;64924;42.140;24.762;2023-02-07T15:59:49;14.10;;;6.18;;
73869;SDS011;64924;42.140;24.762;2023-02-07T16:02:22;12.70;;;7.22;;
73869;SDS011;64924;42.140;24.762;2023-02-07T16:04:52;11.45;;;7.03;;
73869;SDS011;64924;42.140;24.762;2023-02-07T16:07:18;11.60;;;6.18;;
73869;SDS011;64924;42.140;24.762;2023-02-07T16:09:47;11.15;;;7.00;;
73869;SDS011;64924;42.140;24.762;2023-02-07T16:12:29;15.73;;;9.02;;
73869;SDS011;64924;42.140;24.762;2023-02-07T16:14:57;15.80;;;6.95;;
73869;SDS011;64924;42.140;24.762;2023-02-07T16:17:34;16.23;;;7.55;;
73869;SDS011;64924;42.140;24.762;2023-02-07T16:20:02;14.38;;;7.53;;
73869;SDS011;64924;42.140;24.762;2023-02-07T16:22:28;16.90;;;9.02;;
73869;SDS011;64924;42.140;24.762;2023-02-07T16:24:56;15.82;;;8.23;;
73869;SDS011;64924;42.140;24.762;2023-02-07T16:27:25;17.67;;;8.10;;
73869;SDS011;64924;42.140;24.762;2023-02-07T16:29:56;18.83;;;8.15;;
73869;SDS011;64924;42.140;24.762;2023-02-07T16:32:24;18.00;;;8.40;;
73869;SDS011;64924;42.140;24.762;2023-02-07T16:34:55;19.42;;;8.13;;
73869;SDS011;64924;42.140;24.762;2023-02-07T16:37:21;14.40;;;8.23;;
73869;SDS011;64924;42.140;24.762;2023-02-07T16:39:46;14.80;;;8.15;;
73869;SDS011;64924;42.140;24.762;2023-02-07T16:42:12;16.63;;;8.77;;
73869;SDS011;64924;42.140;24.762;2023-02-07T16:44:40;15.90;;;8.57;;
73869;SDS011;64924;42.140;24.762;2023-02-07T16:47:06;17.85;;;9.07;;
73869;SDS011;64924;42.140;24.762;2023-02-07T16:49:31;16.83;;;9.10;;
73869;SDS011;64924;42.140;24.762;2023-02-07T16:51:57;24.90;;;9.88;;
73869;SDS011;64924;42.140;24.762;2023-02-07T16:54:24;21.35;;;9.43;;
73869;SDS011;64924;42.140;24.762;2023-02-07T16:56:51;21.70;;;10.10;;
73869;SDS011;64924;42.140;24.762;2023-02-07T16:59:20;23.27;;;11.73;;
73869;SDS011;64924;42.140;24.762;2023-02-07T17:01:47;23.33;;;12.23;;
73869;SDS011;64924;42.140;24.762;2023-02-07T17:04:14;28.08;;;13.77;;
73869;SDS011;64924;42.140;24.762;2023-02-07T17:06:41;24.95;;;12.57;;
73869;SDS011;64924;42.140;24.762;2023-02-07T17:12:02;26.58;;;13.38;;
73869;SDS011;64924;42.140;24.762;2023-02-07T17:14:27;30.83;;;13.18;;
73869;SDS011;64924;42.140;24.762;2023-02-07T17:16:53;23.95;;;12.02;;
73869;SDS011;64924;42.140;24.762;2023-02-07T17:19:20;19.23;;;10.13;;
73869;SDS011;64924;42.140;24.762;2023-02-07T17:21:49;30.58;;;13.55;;
73869;SDS011;64924;42.140;24.762;2023-02-07T17:24:16;30.25;;;14.02;;
73869;SDS011;64924;42.140;24.762;2023-02-07T17:26:43;34.28;;;14.77;;
73869;SDS011;64924;42.140;24.762;2023-02-07T17:29:11;27.98;;;12.90;;